createdAt,value
2022-11-23T00:00:36.364Z,55.13
2022-11-23T00:03:05.923Z,57.43
2022-11-23T00:05:36.449Z,55.10
2022-11-23T00:08:05.875Z,56.40
2022-11-23T00:10:36.762Z,53.83
2022-11-23T00:13:06.013Z,53.27
2022-11-23T00:15:35.862Z,59.37
2022-11-23T00:18:05.311Z,53.10
2022-11-23T00:20:34.499Z,51.13
2022-11-23T00:23:03.623Z,51.17
2022-11-23T00:25:32.832Z,59.20
2022-11-23T00:28:03.742Z,56.70
2022-11-23T00:30:33.013Z,54.27
2022-11-23T00:33:02.362Z,50.27
2022-11-23T00:35:33.654Z,59.37
2022-11-23T00:38:03.797Z,48.30
2022-11-23T00:40:32.985Z,56.57
2022-11-23T00:43:03.685Z,50.10
2022-11-23T00:45:33.682Z,55.33
2022-11-23T00:48:03.069Z,49.90
2022-11-23T00:50:32.837Z,53.67
2022-11-23T00:53:02.090Z,47.27
2022-11-23T00:55:31.453Z,53.23
2022-11-23T00:58:01.173Z,51.07
2022-11-23T01:00:31.882Z,59.07
2022-11-23T01:03:01.225Z,54.20
2022-11-23T01:05:31.052Z,54.23
2022-11-23T01:08:01.728Z,48.40
2022-11-23T01:10:31.973Z,53.40
2022-11-23T01:13:01.823Z,51.20
2022-11-23T01:15:32.384Z,53.87
2022-11-23T01:18:01.610Z,48.17
2022-11-23T01:20:33.120Z,55.03
2022-11-23T01:23:03.435Z,47.73
2022-11-23T01:25:32.621Z,48.10
2022-11-23T01:28:01.759Z,51.87
2022-11-23T01:30:32.478Z,47.33
2022-11-23T01:33:01.737Z,48.80
2022-11-23T01:35:31.374Z,49.37
2022-11-23T01:38:00.705Z,53.63
2022-11-23T01:40:30.052Z,51.00
2022-11-23T01:43:00.710Z,51.80
2022-11-23T01:45:37.778Z,52.73
2022-11-23T01:48:12.993Z,44.70
2022-11-23T01:50:44.155Z,53.93
2022-11-23T01:53:13.543Z,49.50
2022-11-23T01:55:43.952Z,56.37
2022-11-23T01:58:15.096Z,57.53
2022-11-23T02:00:46.365Z,50.37
2022-11-23T02:03:18.709Z,52.50
2022-11-23T02:05:52.486Z,57.73
2022-11-23T02:08:22.984Z,47.57
2022-11-23T02:10:52.304Z,45.20
2022-11-23T02:13:21.581Z,47.00
2022-11-23T02:15:52.581Z,50.27
2022-11-23T02:18:24.614Z,52.20
2022-11-23T02:20:55.295Z,52.87
2022-11-23T02:23:35.516Z,45.53
2022-11-23T02:26:09.745Z,50.80
2022-11-23T02:28:42.660Z,46.17
2022-11-23T02:31:12.104Z,51.40
2022-11-23T02:33:42.006Z,52.80
2022-11-23T02:36:38.738Z,46.97
2022-11-23T02:39:11.509Z,49.73
2022-11-23T02:41:45.024Z,47.40
2022-11-23T02:47:15.929Z,48.47
2022-11-23T02:52:35.114Z,49.87
2022-11-23T02:55:04.290Z,50.30
2022-11-23T02:57:34.989Z,46.67
2022-11-23T03:00:04.185Z,50.23
2022-11-23T03:02:33.369Z,51.80
2022-11-23T03:05:02.546Z,47.77
2022-11-23T03:07:31.716Z,51.93
2022-11-23T03:10:01.783Z,50.07
2022-11-23T03:12:33.595Z,50.83
2022-11-23T03:15:04.758Z,50.43
2022-11-23T03:17:35.643Z,50.13
2022-11-23T03:20:05.861Z,53.13
2022-11-23T03:22:40.133Z,48.93
2022-11-23T03:25:10.529Z,50.97
2022-11-23T03:27:42.534Z,44.93
2022-11-23T03:30:12.388Z,44.73
2022-11-23T03:32:41.702Z,44.10
2022-11-23T03:35:11.501Z,55.17
2022-11-23T03:37:57.248Z,45.87
2022-11-23T03:40:28.195Z,46.20
2022-11-23T03:43:11.383Z,47.03
2022-11-23T03:45:40.867Z,42.23
2022-11-23T03:48:10.378Z,45.00
2022-11-23T03:50:39.607Z,42.17
2022-11-23T03:53:09.206Z,45.20
2022-11-23T03:55:38.563Z,49.50
2022-11-23T03:58:07.860Z,47.53
2022-11-23T04:00:39.835Z,46.83
2022-11-23T04:03:09.570Z,38.80
2022-11-23T04:05:57.304Z,48.10
2022-11-23T04:08:26.471Z,42.40
2022-11-23T04:10:59.093Z,45.23
2022-11-23T04:13:48.590Z,36.70
2022-11-23T04:16:19.332Z,35.83
2022-11-23T04:18:48.618Z,33.10
2022-11-23T04:21:18.529Z,34.90
2022-11-23T04:23:47.912Z,38.93
2022-11-23T04:26:18.293Z,37.27
2022-11-23T04:28:49.123Z,35.13
2022-11-23T04:31:19.872Z,35.00
2022-11-23T04:34:10.174Z,31.43
2022-11-23T04:36:39.930Z,31.63
2022-11-23T04:39:12.806Z,35.03
2022-11-23T04:41:58.721Z,32.17
2022-11-23T04:44:28.015Z,35.87
2022-11-23T04:47:04.831Z,34.37
2022-11-23T04:49:37.853Z,35.87
2022-11-23T04:52:07.894Z,28.70
2022-11-23T04:54:44.338Z,27.27
2022-11-23T04:57:13.992Z,30.93
2022-11-23T04:59:44.689Z,26.17
2022-11-23T05:02:15.461Z,28.23
2022-11-23T05:05:17.310Z,28.93
2022-11-23T05:07:46.614Z,30.60
2022-11-23T05:10:17.922Z,25.97
2022-11-23T05:12:48.991Z,25.47
2022-11-23T05:15:19.053Z,27.67
2022-11-23T05:17:49.631Z,28.60
2022-11-23T05:20:25.870Z,29.50
2022-11-23T05:22:55.056Z,33.40
2022-11-23T05:25:26.835Z,32.23
2022-11-23T05:28:16.547Z,28.23
2022-11-23T05:30:53.043Z,31.40
2022-11-23T05:33:24.053Z,27.20
2022-11-23T05:35:53.896Z,23.00
2022-11-23T05:38:32.065Z,24.40
2022-11-23T05:41:04.201Z,23.57
2022-11-23T05:43:33.413Z,25.70
2022-11-23T05:46:03.365Z,25.37
2022-11-23T05:48:37.310Z,28.13
2022-11-23T05:51:11.570Z,24.00
2022-11-23T05:53:51.454Z,26.33
2022-11-23T05:56:27.703Z,27.83
2022-11-23T05:59:17.302Z,27.70
2022-11-23T06:01:51.605Z,24.37
2022-11-23T06:04:35.102Z,27.63
2022-11-23T06:07:04.808Z,24.60
2022-11-23T06:10:00.245Z,25.40
2022-11-23T06:12:30.304Z,24.83
2022-11-23T06:15:01.633Z,25.20
2022-11-23T06:17:32.745Z,26.60
2022-11-23T06:20:08.672Z,24.13
2022-11-23T06:22:42.643Z,26.73
2022-11-23T06:25:12.623Z,25.20
2022-11-23T06:27:56.882Z,27.17
2022-11-23T06:30:31.032Z,24.90
2022-11-23T06:33:06.987Z,25.10
2022-11-23T06:35:45.130Z,23.93
2022-11-23T06:38:14.663Z,25.87
2022-11-23T06:40:44.124Z,24.80
2022-11-23T06:43:13.643Z,23.33
2022-11-23T06:45:46.022Z,25.77
2022-11-23T06:48:17.432Z,22.97
2022-11-23T06:50:51.095Z,23.43
2022-11-23T06:53:22.744Z,23.07
2022-11-23T06:56:01.113Z,23.60
2022-11-23T06:58:32.722Z,24.20
2022-11-23T07:01:05.650Z,24.37
2022-11-23T07:03:41.105Z,23.20
2022-11-23T07:06:34.715Z,26.50
2022-11-23T07:09:11.661Z,26.70
2022-11-23T07:12:13.676Z,24.30
2022-11-23T07:14:44.293Z,24.40
2022-11-23T07:17:17.380Z,24.33
2022-11-23T07:19:48.013Z,25.37
2022-11-23T07:22:19.730Z,24.67
2022-11-23T07:24:49.874Z,25.57
2022-11-23T07:27:20.766Z,23.70
2022-11-23T07:29:50.424Z,24.83
2022-11-23T07:32:19.803Z,22.07
2022-11-23T07:34:49.364Z,22.53
2022-11-23T07:37:21.313Z,22.13
2022-11-23T07:39:57.936Z,22.10
2022-11-23T07:42:34.616Z,22.70
2022-11-23T07:45:08.344Z,25.13
2022-11-23T07:47:40.507Z,20.27
2022-11-23T07:50:14.368Z,21.23
2022-11-23T07:52:45.655Z,18.33
2022-11-23T07:55:15.655Z,24.30
2022-11-23T07:57:45.226Z,22.33
2022-11-23T08:00:15.904Z,22.93
2022-11-23T08:03:11.350Z,21.10
2022-11-23T08:05:36.055Z,20.93
2022-11-23T08:08:07.559Z,22.87
2022-11-23T08:10:44.157Z,19.53
2022-11-23T08:13:29.525Z,22.20
2022-11-23T08:16:01.903Z,22.40
2022-11-23T08:18:39.650Z,20.27
2022-11-23T08:21:16.727Z,21.40
2022-11-23T08:23:56.664Z,22.30
2022-11-23T08:26:26.737Z,21.03
2022-11-23T08:28:57.892Z,21.40
2022-11-23T08:34:51.026Z,20.43
2022-11-23T08:37:32.142Z,22.70
2022-11-23T08:46:52.414Z,22.33
2022-11-23T08:49:26.142Z,25.87
2022-11-23T08:51:56.777Z,22.47
2022-11-23T08:54:26.938Z,22.80
2022-11-23T08:57:00.693Z,22.73
2022-11-23T08:59:35.435Z,27.03
2022-11-23T09:02:08.234Z,22.33
2022-11-23T09:04:49.812Z,24.63
2022-11-23T09:07:34.425Z,22.13
2022-11-23T09:10:08.440Z,22.67
2022-11-23T09:16:12.799Z,22.10
2022-11-23T09:18:42.406Z,20.43
2022-11-23T09:21:15.599Z,22.77
2022-11-23T09:23:44.996Z,23.07
2022-11-23T09:26:17.095Z,24.53
2022-11-23T09:28:49.568Z,24.53
2022-11-23T09:31:27.708Z,22.57
2022-11-23T09:33:58.566Z,26.50
2022-11-23T09:36:29.263Z,24.10
2022-11-23T09:39:00.925Z,22.90
2022-11-23T09:42:07.589Z,21.47
2022-11-23T09:44:53.821Z,25.93
2022-11-23T09:47:44.016Z,23.37
2022-11-23T09:50:22.967Z,24.80
2022-11-23T09:53:14.649Z,19.40
2022-11-23T09:55:50.760Z,22.27
2022-11-23T10:01:34.006Z,21.33
2022-11-23T10:04:09.555Z,22.30
2022-11-23T10:06:52.861Z,21.40
2022-11-23T10:09:33.575Z,20.23
2022-11-23T10:12:19.958Z,22.50
2022-11-23T10:15:11.391Z,21.33
2022-11-23T10:18:02.225Z,23.40
2022-11-23T10:20:51.879Z,21.80
2022-11-23T10:23:38.313Z,24.53
2022-11-23T10:26:13.895Z,24.53
2022-11-23T10:28:49.085Z,24.63
2022-11-23T10:34:12.976Z,23.63
2022-11-23T10:36:52.736Z,21.67
2022-11-23T10:39:31.516Z,22.83
2022-11-23T10:42:25.535Z,27.17
2022-11-23T10:48:47.894Z,22.43
2022-11-23T10:51:25.201Z,23.67
2022-11-23T10:54:06.855Z,23.37
2022-11-23T10:56:38.295Z,24.00
2022-11-23T10:59:56.856Z,25.07
2022-11-23T11:02:29.440Z,26.93
2022-11-23T11:05:19.734Z,21.27
2022-11-23T11:07:58.704Z,24.13
2022-11-23T11:10:59.254Z,22.73
2022-11-23T11:14:00.769Z,28.63
2022-11-23T11:16:34.548Z,26.07
2022-11-23T11:19:25.198Z,26.37
2022-11-23T11:26:04.375Z,24.77
2022-11-23T11:28:39.816Z,21.83
2022-11-23T11:31:36.174Z,23.00
2022-11-23T11:34:33.831Z,23.10
2022-11-23T11:40:02.226Z,29.57
2022-11-23T11:42:50.717Z,23.00
2022-11-23T11:45:26.623Z,22.13
2022-11-23T11:48:06.904Z,22.87
2022-11-23T11:50:49.693Z,23.43
2022-11-23T11:53:24.687Z,24.33
2022-11-23T11:56:01.417Z,27.13
2022-11-23T11:58:37.724Z,25.60
2022-11-23T12:01:27.469Z,22.80
2022-11-23T12:04:02.047Z,24.93
2022-11-23T12:06:39.976Z,21.87
2022-11-23T12:09:18.075Z,22.37
2022-11-23T12:11:52.454Z,24.30
2022-11-23T12:14:23.895Z,25.60
2022-11-23T12:17:31.600Z,22.20
2022-11-23T12:20:03.095Z,23.73
2022-11-23T12:22:46.687Z,23.43
2022-11-23T12:28:51.982Z,24.67
2022-11-23T12:31:39.815Z,25.53
2022-11-23T12:34:22.450Z,25.80
2022-11-23T12:37:25.346Z,27.87
2022-11-23T12:43:36.340Z,27.73
2022-11-23T12:46:18.547Z,28.13
2022-11-23T12:49:17.230Z,27.43
2022-11-23T12:51:56.175Z,29.37
2022-11-23T12:54:46.440Z,27.87
2022-11-23T12:57:23.231Z,29.03
2022-11-23T12:59:58.459Z,29.70
2022-11-23T13:03:03.663Z,26.53
2022-11-23T13:07:05.600Z,27.60
2022-11-23T13:10:10.262Z,27.40
2022-11-23T13:13:03.495Z,28.63
2022-11-23T13:15:53.715Z,29.37
2022-11-23T13:18:38.098Z,29.80
2022-11-23T13:21:25.414Z,31.07
2022-11-23T13:23:56.788Z,32.00
2022-11-23T13:26:31.834Z,33.80
2022-11-23T13:29:22.948Z,34.43
2022-11-23T13:32:34.540Z,32.80
2022-11-23T13:35:10.535Z,31.70
2022-11-23T13:38:23.575Z,34.23
2022-11-23T13:40:54.474Z,32.13
2022-11-23T13:43:31.095Z,34.63
2022-11-23T13:46:28.007Z,32.33
2022-11-23T13:49:01.426Z,32.40
2022-11-23T13:51:34.628Z,28.50
2022-11-23T13:54:08.615Z,34.37
2022-11-23T13:56:42.615Z,33.07
2022-11-23T13:59:35.145Z,34.07
2022-11-23T14:02:27.873Z,30.90
2022-11-23T14:05:30.436Z,32.97
2022-11-23T14:08:06.748Z,30.23
2022-11-23T14:10:38.146Z,35.43
2022-11-23T14:13:16.623Z,30.73
2022-11-23T14:15:57.371Z,34.93
2022-11-23T14:18:57.336Z,36.10
2022-11-23T14:21:37.105Z,44.57
2022-11-23T14:24:39.824Z,38.97
2022-11-23T14:27:46.753Z,36.87
2022-11-23T14:30:35.747Z,41.03
2022-11-23T14:33:20.717Z,41.17
2022-11-23T14:36:03.306Z,43.80
2022-11-23T14:39:11.987Z,44.27
2022-11-23T14:41:42.713Z,45.57
2022-11-23T14:44:16.375Z,42.97
2022-11-23T14:47:02.413Z,46.63
2022-11-23T14:50:06.787Z,45.40
2022-11-23T15:13:04.346Z,49.73
2022-11-23T15:15:40.819Z,51.73
2022-11-23T15:18:21.686Z,49.23
2022-11-23T15:27:42.865Z,47.50
2022-11-23T15:30:21.729Z,48.07
2022-11-23T15:32:59.158Z,54.03
2022-11-23T15:35:34.603Z,59.00
2022-11-23T15:38:05.664Z,50.50
2022-11-23T15:40:38.562Z,61.03
2022-11-23T15:43:08.318Z,55.20
2022-11-23T15:46:00.382Z,53.97
2022-11-23T15:48:33.255Z,57.23
2022-11-23T15:51:04.676Z,53.20
2022-11-23T15:53:44.025Z,44.53
2022-11-23T15:56:22.166Z,51.50
2022-11-23T15:58:54.116Z,58.90
2022-11-23T16:01:25.686Z,53.03
2022-11-23T16:04:01.486Z,52.03
2022-11-23T16:06:37.887Z,48.47
2022-11-23T16:09:50.673Z,53.23
2022-11-23T16:12:29.125Z,49.53
2022-11-23T16:15:00.621Z,50.73
2022-11-23T16:17:32.399Z,47.93
2022-11-23T16:20:08.730Z,46.83
2022-11-23T16:22:42.838Z,45.73
2022-11-23T16:25:26.354Z,48.53
2022-11-23T16:28:00.330Z,51.40
2022-11-23T16:30:37.814Z,49.83
2022-11-23T16:33:16.598Z,54.27
2022-11-23T16:35:48.689Z,53.33
2022-11-23T16:38:19.484Z,59.23
2022-11-23T16:40:50.416Z,55.57
2022-11-23T16:43:22.485Z,58.57
2022-11-23T16:45:56.891Z,50.40
2022-11-23T16:48:47.559Z,51.10
2022-11-23T16:51:22.166Z,50.00
2022-11-23T16:54:19.068Z,47.33
2022-11-23T16:56:50.257Z,44.73
2022-11-23T16:59:23.027Z,49.53
2022-11-23T17:01:57.258Z,50.17
2022-11-23T17:04:29.966Z,53.23
2022-11-23T17:07:00.464Z,51.40
2022-11-23T17:09:31.967Z,48.40
2022-11-23T17:12:03.825Z,46.77
2022-11-23T17:14:40.126Z,50.87
2022-11-23T17:17:14.618Z,51.10
2022-11-23T17:19:49.196Z,49.37
2022-11-23T17:22:21.796Z,49.83
2022-11-23T17:24:53.921Z,48.43
2022-11-23T17:27:27.926Z,44.00
2022-11-23T17:30:01.946Z,44.77
2022-11-23T17:32:33.676Z,45.67
2022-11-23T17:35:07.329Z,44.77
2022-11-23T17:37:42.543Z,42.87
2022-11-23T17:40:17.189Z,41.50
2022-11-23T17:42:48.466Z,43.80
2022-11-23T17:45:20.277Z,39.93
2022-11-23T17:47:53.459Z,38.33
2022-11-23T17:50:25.995Z,39.10
2022-11-23T17:53:00.896Z,41.00
2022-11-23T17:55:31.878Z,40.03
2022-11-23T17:58:01.993Z,41.30
2022-11-23T18:00:34.721Z,44.80
2022-11-23T18:03:05.119Z,42.57
2022-11-23T18:05:37.496Z,42.53
2022-11-23T18:08:08.617Z,42.70
2022-11-23T18:10:39.195Z,39.53
2022-11-23T18:13:09.856Z,38.40
2022-11-23T18:15:40.959Z,36.57
2022-11-23T18:18:12.149Z,38.10
2022-11-23T18:20:47.445Z,37.43
2022-11-23T18:23:18.242Z,41.50
2022-11-23T18:25:49.186Z,35.43
2022-11-23T18:28:19.610Z,36.53
2022-11-23T18:30:50.164Z,40.27
2022-11-23T18:33:20.581Z,37.10
2022-11-23T18:35:53.217Z,38.20
2022-11-23T18:38:23.281Z,44.27
2022-11-23T18:40:53.230Z,39.70
2022-11-23T18:43:23.636Z,39.37
2022-11-23T18:45:54.388Z,40.67
2022-11-23T18:48:25.798Z,44.00
2022-11-23T18:50:57.769Z,42.70
2022-11-23T18:53:28.055Z,40.70
2022-11-23T18:56:00.518Z,42.53
2022-11-23T18:58:34.823Z,42.13
2022-11-23T19:01:12.260Z,42.63
2022-11-23T19:03:43.997Z,39.47
2022-11-23T19:06:16.926Z,42.27
2022-11-23T19:08:51.059Z,46.23
2022-11-23T19:11:23.513Z,45.20
2022-11-23T19:13:56.338Z,44.00
2022-11-23T19:16:29.666Z,43.50
2022-11-23T19:19:03.808Z,45.00
2022-11-23T19:21:37.675Z,46.90
2022-11-23T19:24:11.743Z,44.83
2022-11-23T19:26:42.010Z,44.23
2022-11-23T19:29:12.639Z,47.67
2022-11-23T19:31:47.206Z,44.53
2022-11-23T19:34:18.137Z,41.47
2022-11-23T19:36:49.711Z,45.37
2022-11-23T19:39:19.845Z,45.87
2022-11-23T19:41:50.225Z,44.23
2022-11-23T19:44:20.534Z,44.20
2022-11-23T19:46:50.619Z,41.20
2022-11-23T19:49:20.845Z,44.00
2022-11-23T19:51:54.828Z,47.83
2022-11-23T19:54:24.994Z,44.50
2022-11-23T19:56:55.216Z,47.70
2022-11-23T19:59:29.766Z,45.20
2022-11-23T20:01:59.855Z,44.70
2022-11-23T20:04:31.431Z,42.53
2022-11-23T20:07:03.510Z,43.73
2022-11-23T20:09:34.855Z,44.53
2022-11-23T20:12:06.400Z,42.30
2022-11-23T20:14:37.028Z,44.13
2022-11-23T20:17:07.778Z,48.53
2022-11-23T20:19:38.976Z,43.37
2022-11-23T20:22:11.051Z,46.50
2022-11-23T20:24:41.341Z,42.17
2022-11-23T20:27:11.171Z,39.53
2022-11-23T20:29:41.845Z,41.07
2022-11-23T20:32:13.173Z,38.57
2022-11-23T20:37:30.852Z,42.43
2022-11-23T20:40:01.615Z,39.80
2022-11-23T20:42:34.967Z,40.53
2022-11-23T20:45:05.416Z,41.00
2022-11-23T20:47:36.187Z,44.93
2022-11-23T20:50:08.743Z,35.03
2022-11-23T20:52:42.250Z,38.53
2022-11-23T20:55:13.174Z,37.23
2022-11-23T20:57:43.221Z,34.47
2022-11-23T21:00:14.761Z,36.63
2022-11-23T21:02:44.889Z,39.53
2022-11-23T21:05:14.579Z,35.20
2022-11-23T21:07:45.914Z,40.33
2022-11-23T21:10:30.004Z,37.07
2022-11-23T21:13:17.414Z,39.80
2022-11-23T21:15:47.111Z,43.40
2022-11-23T21:18:17.021Z,39.37
2022-11-23T21:20:46.440Z,37.73
2022-11-23T21:23:17.431Z,37.57
2022-11-23T21:25:47.934Z,36.70
2022-11-23T21:28:18.035Z,32.67
2022-11-23T21:30:48.246Z,38.60
2022-11-23T21:33:17.718Z,33.57
2022-11-23T21:35:47.204Z,37.20
2022-11-23T21:38:18.010Z,36.77
2022-11-23T21:40:47.475Z,34.60
2022-11-23T21:43:18.233Z,36.50
2022-11-23T21:45:47.940Z,30.87
2022-11-23T21:48:17.542Z,34.63
2022-11-23T21:50:46.901Z,35.57
2022-11-23T21:53:17.698Z,34.70
2022-11-23T21:55:47.058Z,33.40
2022-11-23T21:58:16.326Z,34.03
2022-11-23T22:00:45.885Z,34.07
2022-11-23T22:03:15.399Z,30.47
2022-11-23T22:05:44.847Z,33.43
2022-11-23T22:08:28.712Z,33.83
2022-11-23T22:11:00.539Z,35.50
2022-11-23T22:13:35.440Z,33.93
2022-11-23T22:16:14.764Z,34.50
2022-11-23T22:18:44.592Z,36.27
2022-11-23T22:21:14.121Z,30.63
2022-11-23T22:23:43.710Z,32.20
2022-11-23T22:26:17.548Z,32.70
2022-11-23T22:28:48.362Z,35.50
2022-11-23T22:31:19.227Z,34.33
2022-11-23T22:33:48.842Z,31.73
2022-11-23T22:36:19.947Z,35.90
2022-11-23T22:38:56.595Z,35.00
2022-11-23T22:41:33.668Z,33.03
2022-11-23T22:44:03.064Z,35.17
2022-11-23T22:46:32.899Z,35.13
2022-11-23T22:49:02.735Z,35.87
2022-11-23T22:51:32.543Z,33.97
2022-11-23T22:54:02.692Z,33.50
2022-11-23T22:56:33.966Z,37.00
2022-11-23T22:59:03.705Z,36.03
2022-11-23T23:01:33.486Z,37.27
2022-11-23T23:04:04.646Z,33.20
2022-11-23T23:06:35.568Z,27.93
2022-11-23T23:09:07.306Z,31.00
2022-11-23T23:11:39.353Z,31.50
2022-11-23T23:14:08.792Z,32.80
2022-11-23T23:16:38.296Z,35.07
2022-11-23T23:19:08.442Z,33.37
2022-11-23T23:21:37.805Z,31.23
2022-11-23T23:24:07.960Z,33.87
2022-11-23T23:26:38.927Z,35.07
2022-11-23T23:29:08.193Z,32.27
2022-11-23T23:31:38.453Z,36.80
2022-11-23T23:34:07.827Z,35.83
2022-11-23T23:36:37.802Z,37.80
2022-11-23T23:39:07.075Z,32.90
2022-11-23T23:41:37.781Z,32.27
2022-11-23T23:44:07.212Z,32.37
2022-11-23T23:46:36.494Z,32.47
2022-11-23T23:49:05.763Z,29.57
2022-11-23T23:51:35.074Z,33.27
2022-11-23T23:54:04.362Z,27.50
2022-11-23T23:56:33.604Z,34.50
2022-11-23T23:59:04.374Z,32.03
